sensor_id;sensor_type;location;lat;lon;timestamp;P1;durP1;ratioP1;P2;durP2;ratioP2
26407;SDS011;14583;43.604;1.364;2023-05-10T00:00:57;34.00;;;5.75;;
26407;SDS011;14583;43.604;1.364;2023-05-10T00:03:23;27.02;;;5.70;;
26407;SDS011;14583;43.604;1.364;2023-05-10T00:05:49;20.42;;;5.22;;
26407;SDS011;14583;43.604;1.364;2023-05-10T00:08:14;22.95;;;5.15;;
26407;SDS011;14583;43.604;1.364;2023-05-10T00:10:40;26.52;;;5.45;;
26407;SDS011;14583;43.604;1.364;2023-05-10T00:13:06;30.95;;;5.80;;
26407;SDS011;14583;43.604;1.364;2023-05-10T00:15:32;26.15;;;5.50;;
26407;SDS011;14583;43.604;1.364;2023-05-10T00:17:59;32.58;;;5.25;;
26407;SDS011;14583;43.604;1.364;2023-05-10T00:20:25;33.67;;;5.75;;
26407;SDS011;14583;43.604;1.364;2023-05-10T00:22:51;28.15;;;5.70;;
26407;SDS011;14583;43.604;1.364;2023-05-10T00:25:17;37.85;;;7.30;;
26407;SDS011;14583;43.604;1.364;2023-05-10T00:27:43;37.20;;;5.93;;
26407;SDS011;14583;43.604;1.364;2023-05-10T00:30:08;29.65;;;6.07;;
26407;SDS011;14583;43.604;1.364;2023-05-10T00:32:34;28.80;;;6.38;;
26407;SDS011;14583;43.604;1.364;2023-05-10T00:35:00;27.02;;;5.55;;
26407;SDS011;14583;43.604;1.364;2023-05-10T00:37:26;35.33;;;5.90;;
26407;SDS011;14583;43.604;1.364;2023-05-10T00:39:52;36.28;;;6.03;;
26407;SDS011;14583;43.604;1.364;2023-05-10T00:42:18;32.67;;;6.38;;
26407;SDS011;14583;43.604;1.364;2023-05-10T00:44:43;29.73;;;5.82;;
26407;SDS011;14583;43.604;1.364;2023-05-10T00:47:09;37.65;;;6.55;;
26407;SDS011;14583;43.604;1.364;2023-05-10T00:49:36;29.88;;;6.47;;
26407;SDS011;14583;43.604;1.364;2023-05-10T00:52:02;25.13;;;5.47;;
26407;SDS011;14583;43.604;1.364;2023-05-10T00:54:28;36.20;;;6.05;;
26407;SDS011;14583;43.604;1.364;2023-05-10T00:56:54;33.28;;;5.60;;
26407;SDS011;14583;43.604;1.364;2023-05-10T00:59:22;29.50;;;5.15;;
26407;SDS011;14583;43.604;1.364;2023-05-10T01:01:47;31.35;;;5.25;;
26407;SDS011;14583;43.604;1.364;2023-05-10T01:04:13;30.95;;;5.65;;
26407;SDS011;14583;43.604;1.364;2023-05-10T01:06:40;26.73;;;6.00;;
26407;SDS011;14583;43.604;1.364;2023-05-10T01:09:06;28.92;;;5.60;;
26407;SDS011;14583;43.604;1.364;2023-05-10T01:11:36;30.50;;;5.55;;
26407;SDS011;14583;43.604;1.364;2023-05-10T01:14:02;26.73;;;5.45;;
26407;SDS011;14583;43.604;1.364;2023-05-10T01:16:31;30.13;;;5.78;;
26407;SDS011;14583;43.604;1.364;2023-05-10T01:18:59;33.28;;;5.95;;
26407;SDS011;14583;43.604;1.364;2023-05-10T01:24:22;20.40;;;5.10;;
26407;SDS011;14583;43.604;1.364;2023-05-10T01:35:10;24.00;;;4.78;;
26407;SDS011;14583;43.604;1.364;2023-05-10T01:38:20;22.38;;;5.30;;
26407;SDS011;14583;43.604;1.364;2023-05-10T01:43:37;26.88;;;6.00;;
26407;SDS011;14583;43.604;1.364;2023-05-10T01:46:14;29.35;;;5.90;;
26407;SDS011;14583;43.604;1.364;2023-05-10T01:48:48;28.02;;;5.63;;
26407;SDS011;14583;43.604;1.364;2023-05-10T01:51:22;25.52;;;5.18;;
26407;SDS011;14583;43.604;1.364;2023-05-10T01:53:50;22.80;;;5.70;;
26407;SDS011;14583;43.604;1.364;2023-05-10T01:56:19;24.83;;;4.63;;
26407;SDS011;14583;43.604;1.364;2023-05-10T01:58:49;24.90;;;5.82;;
26407;SDS011;14583;43.604;1.364;2023-05-10T02:01:15;25.05;;;4.95;;
26407;SDS011;14583;43.604;1.364;2023-05-10T02:03:43;33.35;;;6.50;;
26407;SDS011;14583;43.604;1.364;2023-05-10T02:06:10;25.25;;;5.32;;
26407;SDS011;14583;43.604;1.364;2023-05-10T02:08:37;28.17;;;4.95;;
26407;SDS011;14583;43.604;1.364;2023-05-10T02:11:05;25.73;;;4.85;;
26407;SDS011;14583;43.604;1.364;2023-05-10T02:13:31;30.27;;;6.60;;
26407;SDS011;14583;43.604;1.364;2023-05-10T02:16:00;24.55;;;5.00;;
26407;SDS011;14583;43.604;1.364;2023-05-10T02:18:28;23.48;;;5.18;;
26407;SDS011;14583;43.604;1.364;2023-05-10T02:20:55;24.67;;;5.32;;
26407;SDS011;14583;43.604;1.364;2023-05-10T02:23:21;30.02;;;5.55;;
26407;SDS011;14583;43.604;1.364;2023-05-10T02:25:48;32.97;;;5.65;;
26407;SDS011;14583;43.604;1.364;2023-05-10T02:28:16;33.67;;;6.00;;
26407;SDS011;14583;43.604;1.364;2023-05-10T02:30:43;33.28;;;6.05;;
26407;SDS011;14583;43.604;1.364;2023-05-10T02:33:09;30.45;;;5.53;;
26407;SDS011;14583;43.604;1.364;2023-05-10T02:35:36;41.83;;;5.53;;
26407;SDS011;14583;43.604;1.364;2023-05-10T02:38:03;25.77;;;5.40;;
26407;SDS011;14583;43.604;1.364;2023-05-10T02:40:29;27.70;;;5.57;;
26407;SDS011;14583;43.604;1.364;2023-05-10T02:42:56;27.85;;;4.93;;
26407;SDS011;14583;43.604;1.364;2023-05-10T02:45:24;25.38;;;5.25;;
26407;SDS011;14583;43.604;1.364;2023-05-10T02:47:54;25.73;;;5.35;;
26407;SDS011;14583;43.604;1.364;2023-05-10T02:50:20;35.13;;;6.13;;
26407;SDS011;14583;43.604;1.364;2023-05-10T02:52:47;35.03;;;6.15;;
26407;SDS011;14583;43.604;1.364;2023-05-10T02:55:20;22.77;;;4.75;;
26407;SDS011;14583;43.604;1.364;2023-05-10T02:57:57;24.40;;;5.40;;
26407;SDS011;14583;43.604;1.364;2023-05-10T03:00:25;26.45;;;5.63;;
26407;SDS011;14583;43.604;1.364;2023-05-10T03:02:51;36.50;;;5.50;;
26407;SDS011;14583;43.604;1.364;2023-05-10T03:05:18;23.27;;;4.85;;
26407;SDS011;14583;43.604;1.364;2023-05-10T03:07:44;24.00;;;5.50;;
26407;SDS011;14583;43.604;1.364;2023-05-10T03:10:11;24.30;;;4.30;;
26407;SDS011;14583;43.604;1.364;2023-05-10T03:18:15;21.23;;;4.30;;
26407;SDS011;14583;43.604;1.364;2023-05-10T03:20:48;19.92;;;4.13;;
26407;SDS011;14583;43.604;1.364;2023-05-10T03:26:13;16.73;;;3.67;;
26407;SDS011;14583;43.604;1.364;2023-05-10T03:28:42;20.33;;;4.03;;
26407;SDS011;14583;43.604;1.364;2023-05-10T03:31:09;17.98;;;3.83;;
26407;SDS011;14583;43.604;1.364;2023-05-10T03:33:35;28.48;;;4.88;;
26407;SDS011;14583;43.604;1.364;2023-05-10T03:36:00;22.30;;;3.83;;
26407;SDS011;14583;43.604;1.364;2023-05-10T03:38:26;16.40;;;3.60;;
26407;SDS011;14583;43.604;1.364;2023-05-10T03:40:52;21.63;;;3.80;;
26407;SDS011;14583;43.604;1.364;2023-05-10T03:43:17;19.67;;;4.50;;
26407;SDS011;14583;43.604;1.364;2023-05-10T03:45:43;19.58;;;4.20;;
26407;SDS011;14583;43.604;1.364;2023-05-10T03:48:09;21.48;;;3.75;;
26407;SDS011;14583;43.604;1.364;2023-05-10T03:50:34;19.45;;;3.83;;
26407;SDS011;14583;43.604;1.364;2023-05-10T03:53:00;18.98;;;3.85;;
26407;SDS011;14583;43.604;1.364;2023-05-10T03:55:25;21.38;;;4.57;;
26407;SDS011;14583;43.604;1.364;2023-05-10T03:57:51;26.40;;;4.20;;
26407;SDS011;14583;43.604;1.364;2023-05-10T04:00:18;19.20;;;4.38;;
26407;SDS011;14583;43.604;1.364;2023-05-10T04:02:44;22.23;;;4.10;;
26407;SDS011;14583;43.604;1.364;2023-05-10T04:05:10;20.23;;;4.38;;
26407;SDS011;14583;43.604;1.364;2023-05-10T04:07:36;19.88;;;3.90;;
26407;SDS011;14583;43.604;1.364;2023-05-10T04:10:01;21.83;;;4.85;;
26407;SDS011;14583;43.604;1.364;2023-05-10T04:12:27;19.73;;;4.10;;
26407;SDS011;14583;43.604;1.364;2023-05-10T04:14:53;23.85;;;4.15;;
26407;SDS011;14583;43.604;1.364;2023-05-10T04:17:18;23.20;;;4.15;;
26407;SDS011;14583;43.604;1.364;2023-05-10T04:19:44;24.58;;;4.05;;
26407;SDS011;14583;43.604;1.364;2023-05-10T04:22:09;16.27;;;3.40;;
26407;SDS011;14583;43.604;1.364;2023-05-10T04:24:35;27.00;;;4.90;;
26407;SDS011;14583;43.604;1.364;2023-05-10T04:27:01;24.98;;;5.07;;
26407;SDS011;14583;43.604;1.364;2023-05-10T04:29:26;22.58;;;4.35;;
26407;SDS011;14583;43.604;1.364;2023-05-10T04:31:52;26.85;;;4.68;;
26407;SDS011;14583;43.604;1.364;2023-05-10T04:34:20;22.77;;;4.18;;
26407;SDS011;14583;43.604;1.364;2023-05-10T04:36:46;23.00;;;4.05;;
26407;SDS011;14583;43.604;1.364;2023-05-10T04:39:15;30.80;;;4.95;;
26407;SDS011;14583;43.604;1.364;2023-05-10T04:41:40;22.27;;;5.03;;
26407;SDS011;14583;43.604;1.364;2023-05-10T04:44:06;20.58;;;4.20;;
26407;SDS011;14583;43.604;1.364;2023-05-10T04:46:32;22.77;;;4.53;;
26407;SDS011;14583;43.604;1.364;2023-05-10T04:48:57;20.70;;;5.00;;
26407;SDS011;14583;43.604;1.364;2023-05-10T04:51:23;22.52;;;4.85;;
26407;SDS011;14583;43.604;1.364;2023-05-10T04:53:49;31.13;;;5.05;;
26407;SDS011;14583;43.604;1.364;2023-05-10T04:56:14;28.70;;;5.03;;
26407;SDS011;14583;43.604;1.364;2023-05-10T04:58:41;31.20;;;6.22;;
26407;SDS011;14583;43.604;1.364;2023-05-10T05:01:06;31.15;;;6.22;;
26407;SDS011;14583;43.604;1.364;2023-05-10T05:03:33;28.70;;;5.28;;
26407;SDS011;14583;43.604;1.364;2023-05-10T05:05:59;28.25;;;4.88;;
26407;SDS011;14583;43.604;1.364;2023-05-10T05:08:24;30.55;;;5.03;;
26407;SDS011;14583;43.604;1.364;2023-05-10T05:10:51;28.63;;;5.03;;
26407;SDS011;14583;43.604;1.364;2023-05-10T05:13:16;27.60;;;5.38;;
26407;SDS011;14583;43.604;1.364;2023-05-10T05:15:42;31.30;;;4.45;;
26407;SDS011;14583;43.604;1.364;2023-05-10T05:18:08;22.38;;;4.65;;
26407;SDS011;14583;43.604;1.364;2023-05-10T05:20:33;27.85;;;5.10;;
26407;SDS011;14583;43.604;1.364;2023-05-10T05:22:59;28.92;;;5.10;;
26407;SDS011;14583;43.604;1.364;2023-05-10T05:25:25;29.67;;;4.93;;
26407;SDS011;14583;43.604;1.364;2023-05-10T05:27:51;26.70;;;4.65;;
26407;SDS011;14583;43.604;1.364;2023-05-10T05:30:17;24.17;;;4.28;;
26407;SDS011;14583;43.604;1.364;2023-05-10T05:32:42;21.75;;;4.60;;
26407;SDS011;14583;43.604;1.364;2023-05-10T05:35:09;22.83;;;4.68;;
26407;SDS011;14583;43.604;1.364;2023-05-10T05:37:34;24.38;;;5.28;;
26407;SDS011;14583;43.604;1.364;2023-05-10T05:40:00;28.20;;;5.40;;
26407;SDS011;14583;43.604;1.364;2023-05-10T05:42:26;29.83;;;5.32;;
26407;SDS011;14583;43.604;1.364;2023-05-10T05:44:52;24.00;;;5.63;;
26407;SDS011;14583;43.604;1.364;2023-05-10T05:47:18;22.98;;;4.47;;
26407;SDS011;14583;43.604;1.364;2023-05-10T05:49:43;25.60;;;5.45;;
26407;SDS011;14583;43.604;1.364;2023-05-10T05:52:12;21.80;;;4.55;;
26407;SDS011;14583;43.604;1.364;2023-05-10T05:54:37;27.13;;;4.65;;
26407;SDS011;14583;43.604;1.364;2023-05-10T05:57:03;23.35;;;4.60;;
26407;SDS011;14583;43.604;1.364;2023-05-10T05:59:29;29.55;;;5.15;;
26407;SDS011;14583;43.604;1.364;2023-05-10T06:01:54;21.83;;;4.43;;
26407;SDS011;14583;43.604;1.364;2023-05-10T06:04:20;26.70;;;5.13;;
26407;SDS011;14583;43.604;1.364;2023-05-10T06:06:46;24.50;;;5.25;;
26407;SDS011;14583;43.604;1.364;2023-05-10T06:09:12;31.77;;;5.25;;
26407;SDS011;14583;43.604;1.364;2023-05-10T06:11:38;26.00;;;5.72;;
26407;SDS011;14583;43.604;1.364;2023-05-10T06:14:04;26.50;;;4.65;;
26407;SDS011;14583;43.604;1.364;2023-05-10T06:16:32;27.25;;;5.22;;
26407;SDS011;14583;43.604;1.364;2023-05-10T06:18:58;23.90;;;4.75;;
26407;SDS011;14583;43.604;1.364;2023-05-10T06:21:24;20.45;;;5.65;;
26407;SDS011;14583;43.604;1.364;2023-05-10T06:23:50;25.77;;;4.90;;
26407;SDS011;14583;43.604;1.364;2023-05-10T06:26:16;23.88;;;5.00;;
26407;SDS011;14583;43.604;1.364;2023-05-10T06:28:41;26.35;;;5.30;;
26407;SDS011;14583;43.604;1.364;2023-05-10T06:31:07;23.08;;;5.03;;
26407;SDS011;14583;43.604;1.364;2023-05-10T06:33:33;28.23;;;6.00;;
26407;SDS011;14583;43.604;1.364;2023-05-10T06:35:59;26.20;;;5.10;;
26407;SDS011;14583;43.604;1.364;2023-05-10T06:38:24;21.30;;;4.75;;
26407;SDS011;14583;43.604;1.364;2023-05-10T06:40:51;31.85;;;5.38;;
26407;SDS011;14583;43.604;1.364;2023-05-10T06:43:16;22.65;;;4.75;;
26407;SDS011;14583;43.604;1.364;2023-05-10T06:45:42;23.65;;;5.53;;
26407;SDS011;14583;43.604;1.364;2023-05-10T06:48:08;34.28;;;7.00;;
26407;SDS011;14583;43.604;1.364;2023-05-10T06:50:34;25.83;;;6.60;;
26407;SDS011;14583;43.604;1.364;2023-05-10T06:53:00;25.10;;;6.35;;
26407;SDS011;14583;43.604;1.364;2023-05-10T06:55:26;26.50;;;5.20;;
26407;SDS011;14583;43.604;1.364;2023-05-10T06:57:52;26.73;;;4.63;;
26407;SDS011;14583;43.604;1.364;2023-05-10T07:00:18;26.77;;;4.90;;
26407;SDS011;14583;43.604;1.364;2023-05-10T07:02:44;26.58;;;4.60;;
26407;SDS011;14583;43.604;1.364;2023-05-10T07:05:10;24.75;;;4.43;;
26407;SDS011;14583;43.604;1.364;2023-05-10T07:07:37;25.77;;;4.95;;
26407;SDS011;14583;43.604;1.364;2023-05-10T07:10:03;25.15;;;4.80;;
26407;SDS011;14583;43.604;1.364;2023-05-10T07:12:29;24.33;;;4.55;;
26407;SDS011;14583;43.604;1.364;2023-05-10T07:14:54;23.05;;;4.43;;
26407;SDS011;14583;43.604;1.364;2023-05-10T07:17:20;25.98;;;4.95;;
26407;SDS011;14583;43.604;1.364;2023-05-10T07:19:46;24.88;;;5.32;;
26407;SDS011;14583;43.604;1.364;2023-05-10T07:22:11;40.28;;;5.63;;
26407;SDS011;14583;43.604;1.364;2023-05-10T07:24:37;32.03;;;5.22;;
26407;SDS011;14583;43.604;1.364;2023-05-10T07:27:04;29.58;;;5.13;;
26407;SDS011;14583;43.604;1.364;2023-05-10T07:29:30;30.92;;;5.57;;
26407;SDS011;14583;43.604;1.364;2023-05-10T07:31:55;25.40;;;5.00;;
26407;SDS011;14583;43.604;1.364;2023-05-10T07:34:21;24.92;;;4.85;;
26407;SDS011;14583;43.604;1.364;2023-05-10T07:36:47;23.75;;;5.57;;
26407;SDS011;14583;43.604;1.364;2023-05-10T07:39:12;31.70;;;5.22;;
26407;SDS011;14583;43.604;1.364;2023-05-10T07:41:38;29.08;;;4.80;;
26407;SDS011;14583;43.604;1.364;2023-05-10T07:44:04;21.83;;;4.30;;
26407;SDS011;14583;43.604;1.364;2023-05-10T07:46:30;27.10;;;5.90;;
26407;SDS011;14583;43.604;1.364;2023-05-10T07:48:56;27.35;;;5.28;;
26407;SDS011;14583;43.604;1.364;2023-05-10T07:51:22;26.95;;;4.70;;
26407;SDS011;14583;43.604;1.364;2023-05-10T07:53:47;24.40;;;5.07;;
26407;SDS011;14583;43.604;1.364;2023-05-10T07:58:54;31.17;;;5.15;;
26407;SDS011;14583;43.604;1.364;2023-05-10T08:01:20;26.65;;;4.60;;
26407;SDS011;14583;43.604;1.364;2023-05-10T08:03:46;22.50;;;4.93;;
26407;SDS011;14583;43.604;1.364;2023-05-10T08:06:12;24.30;;;4.65;;
26407;SDS011;14583;43.604;1.364;2023-05-10T08:08:39;26.33;;;5.00;;
26407;SDS011;14583;43.604;1.364;2023-05-10T08:11:04;23.90;;;5.22;;
26407;SDS011;14583;43.604;1.364;2023-05-10T08:13:30;26.02;;;5.50;;
26407;SDS011;14583;43.604;1.364;2023-05-10T08:15:56;19.15;;;4.43;;
26407;SDS011;14583;43.604;1.364;2023-05-10T08:18:22;25.23;;;5.18;;
26407;SDS011;14583;43.604;1.364;2023-05-10T08:20:48;24.27;;;5.00;;
26407;SDS011;14583;43.604;1.364;2023-05-10T08:23:13;28.35;;;4.38;;
26407;SDS011;14583;43.604;1.364;2023-05-10T08:25:39;23.27;;;4.75;;
26407;SDS011;14583;43.604;1.364;2023-05-10T08:28:05;27.17;;;4.35;;
26407;SDS011;14583;43.604;1.364;2023-05-10T08:30:31;24.38;;;4.60;;
26407;SDS011;14583;43.604;1.364;2023-05-10T08:32:56;28.60;;;5.20;;
26407;SDS011;14583;43.604;1.364;2023-05-10T08:35:22;18.48;;;4.60;;
26407;SDS011;14583;43.604;1.364;2023-05-10T08:37:48;19.38;;;4.10;;
26407;SDS011;14583;43.604;1.364;2023-05-10T08:40:13;27.50;;;5.40;;
26407;SDS011;14583;43.604;1.364;2023-05-10T08:42:41;24.20;;;4.50;;
26407;SDS011;14583;43.604;1.364;2023-05-10T08:45:12;24.85;;;4.80;;
26407;SDS011;14583;43.604;1.364;2023-05-10T08:47:40;18.77;;;4.15;;
26407;SDS011;14583;43.604;1.364;2023-05-10T08:50:06;19.13;;;3.83;;
26407;SDS011;14583;43.604;1.364;2023-05-10T08:52:33;22.25;;;4.10;;
26407;SDS011;14583;43.604;1.364;2023-05-10T08:55:04;18.50;;;4.03;;
26407;SDS011;14583;43.604;1.364;2023-05-10T08:57:29;15.60;;;3.47;;
26407;SDS011;14583;43.604;1.364;2023-05-10T08:59:55;17.33;;;3.78;;
26407;SDS011;14583;43.604;1.364;2023-05-10T09:02:21;17.05;;;3.92;;
26407;SDS011;14583;43.604;1.364;2023-05-10T09:04:48;19.98;;;3.63;;
26407;SDS011;14583;43.604;1.364;2023-05-10T09:07:14;25.17;;;3.83;;
26407;SDS011;14583;43.604;1.364;2023-05-10T09:09:39;20.63;;;3.88;;
26407;SDS011;14583;43.604;1.364;2023-05-10T09:12:05;20.45;;;3.78;;
26407;SDS011;14583;43.604;1.364;2023-05-10T09:14:32;15.68;;;3.30;;
26407;SDS011;14583;43.604;1.364;2023-05-10T09:17:00;12.52;;;3.13;;
26407;SDS011;14583;43.604;1.364;2023-05-10T09:19:25;22.20;;;3.60;;
26407;SDS011;14583;43.604;1.364;2023-05-10T09:21:53;17.48;;;3.13;;
26407;SDS011;14583;43.604;1.364;2023-05-10T09:24:18;13.70;;;3.17;;
26407;SDS011;14583;43.604;1.364;2023-05-10T09:26:47;16.73;;;4.03;;
26407;SDS011;14583;43.604;1.364;2023-05-10T09:29:13;19.80;;;3.67;;
26407;SDS011;14583;43.604;1.364;2023-05-10T09:31:46;18.88;;;3.53;;
26407;SDS011;14583;43.604;1.364;2023-05-10T09:34:18;20.48;;;4.13;;
26407;SDS011;14583;43.604;1.364;2023-05-10T09:36:52;21.40;;;3.45;;
26407;SDS011;14583;43.604;1.364;2023-05-10T09:41:55;16.42;;;4.35;;
26407;SDS011;14583;43.604;1.364;2023-05-10T09:44:21;15.63;;;3.10;;
26407;SDS011;14583;43.604;1.364;2023-05-10T09:46:50;18.48;;;3.33;;
26407;SDS011;14583;43.604;1.364;2023-05-10T09:49:17;15.02;;;3.75;;
26407;SDS011;14583;43.604;1.364;2023-05-10T09:51:44;17.83;;;3.20;;
26407;SDS011;14583;43.604;1.364;2023-05-10T09:56:37;13.50;;;3.22;;
26407;SDS011;14583;43.604;1.364;2023-05-10T09:59:05;13.35;;;2.92;;
26407;SDS011;14583;43.604;1.364;2023-05-10T10:01:32;17.08;;;3.75;;
26407;SDS011;14583;43.604;1.364;2023-05-10T10:03:58;17.33;;;4.00;;
26407;SDS011;14583;43.604;1.364;2023-05-10T10:06:27;26.85;;;3.08;;
26407;SDS011;14583;43.604;1.364;2023-05-10T10:08:53;16.35;;;3.42;;
26407;SDS011;14583;43.604;1.364;2023-05-10T10:11:20;14.98;;;3.13;;
26407;SDS011;14583;43.604;1.364;2023-05-10T10:13:45;15.80;;;3.22;;
26407;SDS011;14583;43.604;1.364;2023-05-10T10:16:11;11.15;;;2.63;;
26407;SDS011;14583;43.604;1.364;2023-05-10T10:18:37;8.90;;;2.40;;
26407;SDS011;14583;43.604;1.364;2023-05-10T10:21:06;10.60;;;2.53;;
26407;SDS011;14583;43.604;1.364;2023-05-10T10:23:34;10.02;;;2.35;;
26407;SDS011;14583;43.604;1.364;2023-05-10T10:26:01;11.48;;;2.45;;
26407;SDS011;14583;43.604;1.364;2023-05-10T10:30:57;11.63;;;3.00;;
26407;SDS011;14583;43.604;1.364;2023-05-10T10:36:19;13.98;;;3.00;;
26407;SDS011;14583;43.604;1.364;2023-05-10T10:41:26;17.27;;;3.72;;
26407;SDS011;14583;43.604;1.364;2023-05-10T10:44:58;18.20;;;3.28;;
26407;SDS011;14583;43.604;1.364;2023-05-10T10:52:27;17.55;;;3.60;;
26407;SDS011;14583;43.604;1.364;2023-05-10T10:57:53;13.20;;;3.00;;
26407;SDS011;14583;43.604;1.364;2023-05-10T11:05:24;17.13;;;3.58;;
26407;SDS011;14583;43.604;1.364;2023-05-10T11:08:11;13.55;;;3.00;;
26407;SDS011;14583;43.604;1.364;2023-05-10T11:10:53;16.63;;;3.42;;
26407;SDS011;14583;43.604;1.364;2023-05-10T11:15:58;19.08;;;3.47;;
26407;SDS011;14583;43.604;1.364;2023-05-10T11:18:35;17.77;;;3.70;;
26407;SDS011;14583;43.604;1.364;2023-05-10T11:21:02;12.82;;;3.25;;
26407;SDS011;14583;43.604;1.364;2023-05-10T11:23:33;15.77;;;3.97;;
26407;SDS011;14583;43.604;1.364;2023-05-10T11:26:14;15.88;;;2.75;;
26407;SDS011;14583;43.604;1.364;2023-05-10T11:28:43;14.27;;;2.70;;
26407;SDS011;14583;43.604;1.364;2023-05-10T11:31:10;10.38;;;2.95;;
26407;SDS011;14583;43.604;1.364;2023-05-10T11:33:46;10.48;;;3.15;;
26407;SDS011;14583;43.604;1.364;2023-05-10T11:36:18;13.73;;;3.00;;
26407;SDS011;14583;43.604;1.364;2023-05-10T11:38:51;12.70;;;2.80;;
26407;SDS011;14583;43.604;1.364;2023-05-10T11:41:18;11.23;;;2.63;;
26407;SDS011;14583;43.604;1.364;2023-05-10T11:43:47;12.40;;;2.55;;
26407;SDS011;14583;43.604;1.364;2023-05-10T11:46:15;11.02;;;2.95;;
26407;SDS011;14583;43.604;1.364;2023-05-10T11:48:42;12.13;;;2.35;;
26407;SDS011;14583;43.604;1.364;2023-05-10T11:51:08;8.65;;;2.10;;
26407;SDS011;14583;43.604;1.364;2023-05-10T11:53:35;10.57;;;2.47;;
26407;SDS011;14583;43.604;1.364;2023-05-10T11:58:33;8.48;;;1.75;;
26407;SDS011;14583;43.604;1.364;2023-05-10T12:00:59;8.60;;;2.00;;
26407;SDS011;14583;43.604;1.364;2023-05-10T12:03:26;6.38;;;1.77;;
26407;SDS011;14583;43.604;1.364;2023-05-10T12:05:53;9.70;;;2.28;;
26407;SDS011;14583;43.604;1.364;2023-05-10T12:08:20;7.97;;;2.28;;
26407;SDS011;14583;43.604;1.364;2023-05-10T12:10:51;9.05;;;2.30;;
26407;SDS011;14583;43.604;1.364;2023-05-10T12:13:18;10.50;;;2.40;;
26407;SDS011;14583;43.604;1.364;2023-05-10T12:15:45;7.50;;;1.92;;
26407;SDS011;14583;43.604;1.364;2023-05-10T12:18:12;9.82;;;2.15;;
26407;SDS011;14583;43.604;1.364;2023-05-10T12:20:38;12.05;;;2.78;;
26407;SDS011;14583;43.604;1.364;2023-05-10T12:23:05;15.18;;;3.40;;
26407;SDS011;14583;43.604;1.364;2023-05-10T12:25:33;11.25;;;3.00;;
26407;SDS011;14583;43.604;1.364;2023-05-10T12:28:02;13.55;;;2.78;;
26407;SDS011;14583;43.604;1.364;2023-05-10T12:30:30;8.30;;;2.40;;
26407;SDS011;14583;43.604;1.364;2023-05-10T12:33:00;13.60;;;2.88;;
26407;SDS011;14583;43.604;1.364;2023-05-10T12:35:47;11.50;;;2.70;;
26407;SDS011;14583;43.604;1.364;2023-05-10T12:38:29;5.10;;;2.00;;
26407;SDS011;14583;43.604;1.364;2023-05-10T12:41:07;9.43;;;2.05;;
26407;SDS011;14583;43.604;1.364;2023-05-10T12:43:38;12.45;;;2.63;;
26407;SDS011;14583;43.604;1.364;2023-05-10T12:46:08;7.00;;;1.95;;
26407;SDS011;14583;43.604;1.364;2023-05-10T12:48:36;10.25;;;3.00;;
26407;SDS011;14583;43.604;1.364;2023-05-10T12:51:02;8.50;;;2.83;;
26407;SDS011;14583;43.604;1.364;2023-05-10T12:53:29;8.20;;;1.70;;
26407;SDS011;14583;43.604;1.364;2023-05-10T12:55:55;10.57;;;2.50;;
26407;SDS011;14583;43.604;1.364;2023-05-10T12:58:21;4.97;;;1.58;;
26407;SDS011;14583;43.604;1.364;2023-05-10T13:00:46;4.60;;;1.63;;
26407;SDS011;14583;43.604;1.364;2023-05-10T13:03:12;8.35;;;1.90;;
26407;SDS011;14583;43.604;1.364;2023-05-10T13:05:38;4.45;;;1.38;;
26407;SDS011;14583;43.604;1.364;2023-05-10T13:08:04;8.77;;;1.90;;
26407;SDS011;14583;43.604;1.364;2023-05-10T13:10:30;6.88;;;1.70;;
26407;SDS011;14583;43.604;1.364;2023-05-10T13:12:56;7.28;;;1.67;;
26407;SDS011;14583;43.604;1.364;2023-05-10T13:15:25;9.60;;;2.00;;
26407;SDS011;14583;43.604;1.364;2023-05-10T13:17:51;8.02;;;1.80;;
26407;SDS011;14583;43.604;1.364;2023-05-10T13:20:18;6.20;;;2.00;;
26407;SDS011;14583;43.604;1.364;2023-05-10T13:22:43;10.23;;;2.00;;
26407;SDS011;14583;43.604;1.364;2023-05-10T13:25:10;7.82;;;1.90;;
26407;SDS011;14583;43.604;1.364;2023-05-10T13:27:36;5.05;;;1.55;;
26407;SDS011;14583;43.604;1.364;2023-05-10T13:30:03;7.95;;;1.95;;
26407;SDS011;14583;43.604;1.364;2023-05-10T13:32:29;5.57;;;1.70;;
26407;SDS011;14583;43.604;1.364;2023-05-10T13:34:55;6.82;;;1.83;;
26407;SDS011;14583;43.604;1.364;2023-05-10T13:37:21;7.57;;;1.80;;
26407;SDS011;14583;43.604;1.364;2023-05-10T13:39:47;6.45;;;2.10;;
26407;SDS011;14583;43.604;1.364;2023-05-10T13:42:13;6.68;;;1.80;;
26407;SDS011;14583;43.604;1.364;2023-05-10T13:44:39;10.32;;;2.42;;
26407;SDS011;14583;43.604;1.364;2023-05-10T13:47:05;7.85;;;1.92;;
26407;SDS011;14583;43.604;1.364;2023-05-10T13:49:30;9.88;;;2.20;;
26407;SDS011;14583;43.604;1.364;2023-05-10T13:51:56;9.27;;;2.15;;
26407;SDS011;14583;43.604;1.364;2023-05-10T13:54:23;15.25;;;2.78;;
26407;SDS011;14583;43.604;1.364;2023-05-10T13:56:48;13.65;;;2.72;;
26407;SDS011;14583;43.604;1.364;2023-05-10T13:59:14;8.82;;;2.38;;
26407;SDS011;14583;43.604;1.364;2023-05-10T14:01:40;11.27;;;1.90;;
26407;SDS011;14583;43.604;1.364;2023-05-10T14:04:07;7.85;;;2.25;;
26407;SDS011;14583;43.604;1.364;2023-05-10T14:06:35;10.90;;;2.35;;
26407;SDS011;14583;43.604;1.364;2023-05-10T14:09:02;10.32;;;2.40;;
26407;SDS011;14583;43.604;1.364;2023-05-10T14:11:28;8.93;;;2.30;;
26407;SDS011;14583;43.604;1.364;2023-05-10T14:13:54;8.40;;;2.15;;
26407;SDS011;14583;43.604;1.364;2023-05-10T14:16:20;11.07;;;2.20;;
26407;SDS011;14583;43.604;1.364;2023-05-10T14:18:46;8.90;;;2.22;;
26407;SDS011;14583;43.604;1.364;2023-05-10T14:21:11;6.82;;;1.73;;
26407;SDS011;14583;43.604;1.364;2023-05-10T14:23:37;7.38;;;2.35;;
26407;SDS011;14583;43.604;1.364;2023-05-10T14:26:03;7.50;;;1.83;;
26407;SDS011;14583;43.604;1.364;2023-05-10T14:28:29;6.22;;;1.67;;
26407;SDS011;14583;43.604;1.364;2023-05-10T14:30:54;6.20;;;1.50;;
26407;SDS011;14583;43.604;1.364;2023-05-10T14:33:20;8.50;;;2.58;;
26407;SDS011;14583;43.604;1.364;2023-05-10T14:35:46;8.55;;;2.05;;
26407;SDS011;14583;43.604;1.364;2023-05-10T14:38:12;9.73;;;1.90;;
26407;SDS011;14583;43.604;1.364;2023-05-10T14:40:38;10.75;;;2.50;;
26407;SDS011;14583;43.604;1.364;2023-05-10T14:43:03;7.07;;;2.08;;
26407;SDS011;14583;43.604;1.364;2023-05-10T14:45:29;10.88;;;2.22;;
26407;SDS011;14583;43.604;1.364;2023-05-10T14:47:55;9.75;;;2.55;;
26407;SDS011;14583;43.604;1.364;2023-05-10T14:50:20;11.98;;;2.67;;
26407;SDS011;14583;43.604;1.364;2023-05-10T14:52:46;5.45;;;1.90;;
26407;SDS011;14583;43.604;1.364;2023-05-10T14:55:12;10.93;;;2.20;;
26407;SDS011;14583;43.604;1.364;2023-05-10T14:57:37;7.97;;;2.33;;
26407;SDS011;14583;43.604;1.364;2023-05-10T15:00:03;5.43;;;2.05;;
26407;SDS011;14583;43.604;1.364;2023-05-10T15:02:30;7.35;;;2.00;;
26407;SDS011;14583;43.604;1.364;2023-05-10T15:04:56;11.02;;;2.42;;
26407;SDS011;14583;43.604;1.364;2023-05-10T15:07:22;9.35;;;2.40;;
26407;SDS011;14583;43.604;1.364;2023-05-10T15:09:49;7.07;;;1.98;;
26407;SDS011;14583;43.604;1.364;2023-05-10T15:12:16;9.80;;;2.40;;
26407;SDS011;14583;43.604;1.364;2023-05-10T15:14:42;8.23;;;2.35;;
26407;SDS011;14583;43.604;1.364;2023-05-10T15:17:08;10.80;;;2.30;;
26407;SDS011;14583;43.604;1.364;2023-05-10T15:19:34;11.50;;;2.50;;
26407;SDS011;14583;43.604;1.364;2023-05-10T15:21:59;5.97;;;2.10;;
26407;SDS011;14583;43.604;1.364;2023-05-10T15:24:25;7.97;;;1.92;;
26407;SDS011;14583;43.604;1.364;2023-05-10T15:26:50;8.68;;;2.50;;
26407;SDS011;14583;43.604;1.364;2023-05-10T15:29:16;14.85;;;2.72;;
26407;SDS011;14583;43.604;1.364;2023-05-10T15:31:47;14.27;;;2.47;;